sensor_id;sensor_type;location;lat;lon;timestamp;P1;durP1;ratioP1;P2;durP2;ratioP2
43435;SDS011;36399;51.444;-2.018;2022-11-20T00:01:24;9.50;;;3.93;;
43435;SDS011;36399;51.444;-2.018;2022-11-20T00:03:52;10.07;;;5.47;;
43435;SDS011;36399;51.444;-2.018;2022-11-20T00:06:19;17.27;;;5.80;;
43435;SDS011;36399;51.444;-2.018;2022-11-20T00:08:46;12.97;;;6.50;;
43435;SDS011;36399;51.444;-2.018;2022-11-20T00:11:13;12.70;;;5.80;;
43435;SDS011;36399;51.444;-2.018;2022-11-20T00:13:41;10.53;;;5.17;;
43435;SDS011;36399;51.444;-2.018;2022-11-20T00:16:12;9.30;;;4.67;;
43435;SDS011;36399;51.444;-2.018;2022-11-20T00:18:38;10.83;;;5.20;;
43435;SDS011;36399;51.444;-2.018;2022-11-20T00:21:05;9.83;;;4.33;;
43435;SDS011;36399;51.444;-2.018;2022-11-20T00:23:33;13.20;;;5.30;;
43435;SDS011;36399;51.444;-2.018;2022-11-20T00:26:03;10.97;;;6.37;;
43435;SDS011;36399;51.444;-2.018;2022-11-20T00:28:29;9.53;;;4.87;;
43435;SDS011;36399;51.444;-2.018;2022-11-20T00:31:02;8.03;;;4.63;;
43435;SDS011;36399;51.444;-2.018;2022-11-20T00:33:32;14.13;;;5.53;;
43435;SDS011;36399;51.444;-2.018;2022-11-20T00:36:02;11.07;;;5.00;;
43435;SDS011;36399;51.444;-2.018;2022-11-20T00:38:30;14.73;;;6.03;;
43435;SDS011;36399;51.444;-2.018;2022-11-20T00:41:00;20.27;;;6.47;;
43435;SDS011;36399;51.444;-2.018;2022-11-20T00:43:27;12.60;;;6.30;;
43435;SDS011;36399;51.444;-2.018;2022-11-20T00:45:57;10.73;;;5.40;;
43435;SDS011;36399;51.444;-2.018;2022-11-20T00:48:43;12.60;;;6.37;;
43435;SDS011;36399;51.444;-2.018;2022-11-20T00:51:11;12.60;;;5.60;;
43435;SDS011;36399;51.444;-2.018;2022-11-20T00:53:38;13.30;;;6.60;;
43435;SDS011;36399;51.444;-2.018;2022-11-20T00:56:05;11.87;;;4.80;;
43435;SDS011;36399;51.444;-2.018;2022-11-20T00:58:34;10.17;;;6.13;;
43435;SDS011;36399;51.444;-2.018;2022-11-20T01:01:03;13.67;;;6.43;;
43435;SDS011;36399;51.444;-2.018;2022-11-20T01:03:35;12.27;;;6.60;;
43435;SDS011;36399;51.444;-2.018;2022-11-20T01:06:03;10.47;;;6.67;;
43435;SDS011;36399;51.444;-2.018;2022-11-20T01:08:35;12.27;;;7.00;;
43435;SDS011;36399;51.444;-2.018;2022-11-20T01:11:03;18.13;;;7.00;;
43435;SDS011;36399;51.444;-2.018;2022-11-20T01:13:30;14.60;;;5.90;;
43435;SDS011;36399;51.444;-2.018;2022-11-20T01:16:04;19.33;;;7.50;;
43435;SDS011;36399;51.444;-2.018;2022-11-20T01:18:30;10.73;;;6.07;;
43435;SDS011;36399;51.444;-2.018;2022-11-20T01:20:59;17.87;;;7.17;;
43435;SDS011;36399;51.444;-2.018;2022-11-20T01:23:30;13.13;;;6.13;;
43435;SDS011;36399;51.444;-2.018;2022-11-20T01:25:59;14.33;;;6.73;;
43435;SDS011;36399;51.444;-2.018;2022-11-20T01:28:26;13.07;;;6.20;;
43435;SDS011;36399;51.444;-2.018;2022-11-20T01:30:52;12.80;;;5.60;;
43435;SDS011;36399;51.444;-2.018;2022-11-20T01:33:17;15.77;;;6.10;;
43435;SDS011;36399;51.444;-2.018;2022-11-20T01:35:43;15.37;;;5.77;;
43435;SDS011;36399;51.444;-2.018;2022-11-20T01:38:09;12.07;;;5.40;;
43435;SDS011;36399;51.444;-2.018;2022-11-20T01:40:35;12.77;;;5.77;;
43435;SDS011;36399;51.444;-2.018;2022-11-20T01:43:09;15.00;;;6.87;;
43435;SDS011;36399;51.444;-2.018;2022-11-20T01:48:32;13.77;;;6.63;;
43435;SDS011;36399;51.444;-2.018;2022-11-20T01:51:02;13.73;;;6.40;;
43435;SDS011;36399;51.444;-2.018;2022-11-20T01:53:31;11.40;;;6.30;;
43435;SDS011;36399;51.444;-2.018;2022-11-20T01:56:00;15.07;;;5.90;;
43435;SDS011;36399;51.444;-2.018;2022-11-20T01:58:30;12.97;;;6.33;;
43435;SDS011;36399;51.444;-2.018;2022-11-20T02:00:59;10.60;;;5.60;;
43435;SDS011;36399;51.444;-2.018;2022-11-20T02:03:25;13.40;;;7.40;;
43435;SDS011;36399;51.444;-2.018;2022-11-20T02:08:17;12.53;;;6.20;;
43435;SDS011;36399;51.444;-2.018;2022-11-20T02:10:45;12.93;;;5.60;;
43435;SDS011;36399;51.444;-2.018;2022-11-20T02:13:11;12.77;;;6.57;;
43435;SDS011;36399;51.444;-2.018;2022-11-20T02:15:56;6.27;;;3.87;;
43435;SDS011;36399;51.444;-2.018;2022-11-20T02:18:22;5.03;;;3.00;;
43435;SDS011;36399;51.444;-2.018;2022-11-20T02:20:50;11.47;;;3.83;;
43435;SDS011;36399;51.444;-2.018;2022-11-20T02:26:03;6.83;;;2.60;;
43435;SDS011;36399;51.444;-2.018;2022-11-20T02:28:33;7.13;;;2.43;;
43435;SDS011;36399;51.444;-2.018;2022-11-20T02:30:59;4.90;;;2.67;;
43435;SDS011;36399;51.444;-2.018;2022-11-20T02:33:25;6.97;;;3.47;;
43435;SDS011;36399;51.444;-2.018;2022-11-20T02:35:51;13.77;;;5.90;;
43435;SDS011;36399;51.444;-2.018;2022-11-20T02:38:18;11.43;;;4.93;;
43435;SDS011;36399;51.444;-2.018;2022-11-20T02:40:44;13.33;;;6.23;;
43435;SDS011;36399;51.444;-2.018;2022-11-20T02:43:10;9.40;;;5.70;;
43435;SDS011;36399;51.444;-2.018;2022-11-20T02:45:36;14.37;;;6.33;;
43435;SDS011;36399;51.444;-2.018;2022-11-20T02:48:02;8.90;;;4.73;;
43435;SDS011;36399;51.444;-2.018;2022-11-20T02:50:28;12.70;;;6.20;;
43435;SDS011;36399;51.444;-2.018;2022-11-20T02:52:54;10.87;;;5.90;;
43435;SDS011;36399;51.444;-2.018;2022-11-20T02:55:20;10.67;;;6.03;;
43435;SDS011;36399;51.444;-2.018;2022-11-20T02:57:46;16.93;;;6.70;;
43435;SDS011;36399;51.444;-2.018;2022-11-20T03:00:12;13.17;;;7.80;;
43435;SDS011;36399;51.444;-2.018;2022-11-20T03:02:38;14.20;;;6.93;;
43435;SDS011;36399;51.444;-2.018;2022-11-20T03:05:04;12.97;;;7.03;;
43435;SDS011;36399;51.444;-2.018;2022-11-20T03:07:30;12.97;;;6.30;;
43435;SDS011;36399;51.444;-2.018;2022-11-20T03:09:56;13.03;;;7.17;;
43435;SDS011;36399;51.444;-2.018;2022-11-20T03:12:22;12.00;;;7.00;;
43435;SDS011;36399;51.444;-2.018;2022-11-20T03:14:48;11.47;;;5.73;;
43435;SDS011;36399;51.444;-2.018;2022-11-20T03:17:14;10.13;;;5.67;;
43435;SDS011;36399;51.444;-2.018;2022-11-20T03:19:41;14.13;;;7.00;;
43435;SDS011;36399;51.444;-2.018;2022-11-20T03:22:07;11.83;;;6.67;;
43435;SDS011;36399;51.444;-2.018;2022-11-20T03:24:33;12.47;;;6.23;;
43435;SDS011;36399;51.444;-2.018;2022-11-20T03:26:59;15.03;;;6.67;;
43435;SDS011;36399;51.444;-2.018;2022-11-20T03:29:25;11.10;;;5.60;;
43435;SDS011;36399;51.444;-2.018;2022-11-20T03:31:51;13.80;;;6.60;;
43435;SDS011;36399;51.444;-2.018;2022-11-20T03:34:17;11.53;;;6.27;;
43435;SDS011;36399;51.444;-2.018;2022-11-20T03:36:43;10.60;;;5.93;;
43435;SDS011;36399;51.444;-2.018;2022-11-20T03:39:09;10.47;;;6.20;;
43435;SDS011;36399;51.444;-2.018;2022-11-20T03:41:36;13.57;;;6.67;;
43435;SDS011;36399;51.444;-2.018;2022-11-20T03:44:07;12.77;;;6.67;;
43435;SDS011;36399;51.444;-2.018;2022-11-20T03:46:34;8.37;;;5.30;;
43435;SDS011;36399;51.444;-2.018;2022-11-20T03:49:00;10.30;;;3.80;;
43435;SDS011;36399;51.444;-2.018;2022-11-20T03:51:27;7.30;;;3.60;;
43435;SDS011;36399;51.444;-2.018;2022-11-20T03:53:56;6.83;;;3.30;;
43435;SDS011;36399;51.444;-2.018;2022-11-20T03:56:25;6.40;;;3.07;;
43435;SDS011;36399;51.444;-2.018;2022-11-20T03:58:53;6.87;;;3.30;;
43435;SDS011;36399;51.444;-2.018;2022-11-20T04:01:20;8.67;;;4.40;;
43435;SDS011;36399;51.444;-2.018;2022-11-20T04:03:51;9.63;;;4.50;;
43435;SDS011;36399;51.444;-2.018;2022-11-20T04:06:19;7.57;;;4.43;;
43435;SDS011;36399;51.444;-2.018;2022-11-20T04:08:47;7.57;;;4.77;;
43435;SDS011;36399;51.444;-2.018;2022-11-20T04:11:47;12.13;;;5.00;;
43435;SDS011;36399;51.444;-2.018;2022-11-20T04:14:06;8.20;;;4.50;;
43435;SDS011;36399;51.444;-2.018;2022-11-20T04:16:37;8.10;;;4.37;;
43435;SDS011;36399;51.444;-2.018;2022-11-20T04:19:05;10.53;;;4.40;;
43435;SDS011;36399;51.444;-2.018;2022-11-20T04:21:34;9.83;;;5.10;;
43435;SDS011;36399;51.444;-2.018;2022-11-20T04:24:00;11.87;;;5.23;;
43435;SDS011;36399;51.444;-2.018;2022-11-20T04:26:28;10.53;;;4.87;;
43435;SDS011;36399;51.444;-2.018;2022-11-20T04:28:55;8.87;;;4.57;;
43435;SDS011;36399;51.444;-2.018;2022-11-20T04:31:23;7.73;;;4.37;;
43435;SDS011;36399;51.444;-2.018;2022-11-20T04:33:51;7.37;;;4.17;;
43435;SDS011;36399;51.444;-2.018;2022-11-20T04:36:18;7.57;;;4.33;;
43435;SDS011;36399;51.444;-2.018;2022-11-20T04:38:54;8.47;;;4.40;;
43435;SDS011;36399;51.444;-2.018;2022-11-20T04:41:27;7.80;;;4.32;;
43435;SDS011;36399;51.444;-2.018;2022-11-20T04:43:56;8.13;;;4.47;;
43435;SDS011;36399;51.444;-2.018;2022-11-20T04:46:29;7.33;;;4.60;;
43435;SDS011;36399;51.444;-2.018;2022-11-20T04:48:58;6.80;;;3.87;;
43435;SDS011;36399;51.444;-2.018;2022-11-20T04:51:24;8.90;;;5.33;;
43435;SDS011;36399;51.444;-2.018;2022-11-20T04:53:51;7.77;;;4.57;;
43435;SDS011;36399;51.444;-2.018;2022-11-20T04:56:16;7.57;;;4.00;;
43435;SDS011;36399;51.444;-2.018;2022-11-20T04:58:42;7.73;;;4.13;;
43435;SDS011;36399;51.444;-2.018;2022-11-20T05:01:09;9.30;;;4.90;;
43435;SDS011;36399;51.444;-2.018;2022-11-20T05:03:38;7.07;;;3.73;;
43435;SDS011;36399;51.444;-2.018;2022-11-20T05:06:05;9.67;;;4.90;;
43435;SDS011;36399;51.444;-2.018;2022-11-20T05:08:32;7.50;;;4.53;;
43435;SDS011;36399;51.444;-2.018;2022-11-20T05:10:59;8.47;;;4.47;;
43435;SDS011;36399;51.444;-2.018;2022-11-20T05:13:29;9.63;;;4.37;;
43435;SDS011;36399;51.444;-2.018;2022-11-20T05:15:55;10.37;;;5.00;;
43435;SDS011;36399;51.444;-2.018;2022-11-20T05:18:26;9.27;;;4.47;;
43435;SDS011;36399;51.444;-2.018;2022-11-20T05:20:55;9.73;;;4.90;;
43435;SDS011;36399;51.444;-2.018;2022-11-20T05:23:22;9.60;;;5.17;;
43435;SDS011;36399;51.444;-2.018;2022-11-20T05:25:48;8.67;;;4.87;;
43435;SDS011;36399;51.444;-2.018;2022-11-20T05:28:16;8.77;;;4.90;;
43435;SDS011;36399;51.444;-2.018;2022-11-20T05:30:42;9.37;;;4.93;;
43435;SDS011;36399;51.444;-2.018;2022-11-20T05:33:09;6.63;;;3.40;;
43435;SDS011;36399;51.444;-2.018;2022-11-20T05:35:35;6.77;;;3.50;;
43435;SDS011;36399;51.444;-2.018;2022-11-20T05:38:01;8.27;;;4.70;;
43435;SDS011;36399;51.444;-2.018;2022-11-20T05:40:26;8.03;;;3.07;;
43435;SDS011;36399;51.444;-2.018;2022-11-20T05:42:52;7.27;;;3.10;;
43435;SDS011;36399;51.444;-2.018;2022-11-20T05:45:18;5.47;;;2.40;;
43435;SDS011;36399;51.444;-2.018;2022-11-20T05:47:44;6.63;;;2.53;;
43435;SDS011;36399;51.444;-2.018;2022-11-20T05:50:10;6.47;;;3.23;;
43435;SDS011;36399;51.444;-2.018;2022-11-20T05:52:36;5.37;;;3.37;;
43435;SDS011;36399;51.444;-2.018;2022-11-20T05:55:02;6.27;;;2.80;;
43435;SDS011;36399;51.444;-2.018;2022-11-20T05:57:28;10.43;;;3.53;;
43435;SDS011;36399;51.444;-2.018;2022-11-20T05:59:54;6.20;;;2.93;;
43435;SDS011;36399;51.444;-2.018;2022-11-20T06:02:20;7.43;;;3.17;;
43435;SDS011;36399;51.444;-2.018;2022-11-20T06:04:46;8.07;;;3.50;;
43435;SDS011;36399;51.444;-2.018;2022-11-20T06:07:12;8.53;;;3.40;;
43435;SDS011;36399;51.444;-2.018;2022-11-20T06:09:38;43.03;;;9.50;;
43435;SDS011;36399;51.444;-2.018;2022-11-20T06:12:04;27.17;;;7.33;;
43435;SDS011;36399;51.444;-2.018;2022-11-20T06:14:31;8.83;;;3.80;;
43435;SDS011;36399;51.444;-2.018;2022-11-20T06:16:57;10.57;;;4.27;;
43435;SDS011;36399;51.444;-2.018;2022-11-20T06:19:22;10.10;;;4.27;;
43435;SDS011;36399;51.444;-2.018;2022-11-20T06:21:49;12.27;;;4.90;;
43435;SDS011;36399;51.444;-2.018;2022-11-20T06:24:15;11.47;;;4.40;;
43435;SDS011;36399;51.444;-2.018;2022-11-20T06:26:41;17.70;;;4.67;;
43435;SDS011;36399;51.444;-2.018;2022-11-20T06:29:07;11.30;;;4.20;;
43435;SDS011;36399;51.444;-2.018;2022-11-20T06:31:33;8.63;;;4.10;;
43435;SDS011;36399;51.444;-2.018;2022-11-20T06:34:03;8.63;;;4.27;;
43435;SDS011;36399;51.444;-2.018;2022-11-20T06:36:30;9.93;;;3.97;;
43435;SDS011;36399;51.444;-2.018;2022-11-20T06:38:57;8.60;;;4.20;;
43435;SDS011;36399;51.444;-2.018;2022-11-20T06:41:23;6.60;;;3.30;;
43435;SDS011;36399;51.444;-2.018;2022-11-20T06:43:49;9.77;;;3.10;;
43435;SDS011;36399;51.444;-2.018;2022-11-20T06:46:15;8.63;;;2.70;;
43435;SDS011;36399;51.444;-2.018;2022-11-20T06:48:43;10.30;;;2.93;;
43435;SDS011;36399;51.444;-2.018;2022-11-20T06:51:09;8.60;;;2.57;;
43435;SDS011;36399;51.444;-2.018;2022-11-20T06:53:35;9.90;;;2.80;;
43435;SDS011;36399;51.444;-2.018;2022-11-20T06:56:02;6.87;;;2.57;;
43435;SDS011;36399;51.444;-2.018;2022-11-20T06:58:30;8.03;;;2.43;;
43435;SDS011;36399;51.444;-2.018;2022-11-20T07:00:58;11.07;;;3.57;;
43435;SDS011;36399;51.444;-2.018;2022-11-20T07:03:33;5.87;;;2.70;;
43435;SDS011;36399;51.444;-2.018;2022-11-20T07:05:59;4.97;;;2.47;;
43435;SDS011;36399;51.444;-2.018;2022-11-20T07:08:26;7.10;;;2.43;;
43435;SDS011;36399;51.444;-2.018;2022-11-20T07:10:52;11.17;;;2.00;;
43435;SDS011;36399;51.444;-2.018;2022-11-20T07:13:18;10.43;;;3.20;;
43435;SDS011;36399;51.444;-2.018;2022-11-20T07:15:44;8.47;;;3.10;;
43435;SDS011;36399;51.444;-2.018;2022-11-20T07:18:10;7.27;;;2.60;;
43435;SDS011;36399;51.444;-2.018;2022-11-20T07:20:36;10.20;;;2.97;;
43435;SDS011;36399;51.444;-2.018;2022-11-20T07:23:02;11.27;;;2.77;;
43435;SDS011;36399;51.444;-2.018;2022-11-20T07:25:28;13.30;;;4.27;;
43435;SDS011;36399;51.444;-2.018;2022-11-20T07:27:57;10.33;;;2.73;;
43435;SDS011;36399;51.444;-2.018;2022-11-20T07:30:24;6.67;;;2.67;;
43435;SDS011;36399;51.444;-2.018;2022-11-20T07:32:50;13.37;;;2.33;;
43435;SDS011;36399;51.444;-2.018;2022-11-20T07:35:17;12.17;;;2.97;;
43435;SDS011;36399;51.444;-2.018;2022-11-20T07:37:43;11.50;;;3.17;;
43435;SDS011;36399;51.444;-2.018;2022-11-20T07:40:14;11.90;;;2.87;;
43435;SDS011;36399;51.444;-2.018;2022-11-20T07:42:50;12.87;;;3.80;;
43435;SDS011;36399;51.444;-2.018;2022-11-20T07:45:17;10.80;;;2.97;;
43435;SDS011;36399;51.444;-2.018;2022-11-20T07:47:44;17.50;;;3.47;;
43435;SDS011;36399;51.444;-2.018;2022-11-20T07:50:10;11.23;;;2.97;;
43435;SDS011;36399;51.444;-2.018;2022-11-20T07:52:36;10.50;;;3.23;;
43435;SDS011;36399;51.444;-2.018;2022-11-20T07:55:02;16.97;;;2.83;;
43435;SDS011;36399;51.444;-2.018;2022-11-20T07:57:28;10.33;;;3.17;;
43435;SDS011;36399;51.444;-2.018;2022-11-20T07:59:54;15.77;;;3.63;;
43435;SDS011;36399;51.444;-2.018;2022-11-20T08:02:20;10.07;;;2.77;;
43435;SDS011;36399;51.444;-2.018;2022-11-20T08:04:46;13.27;;;3.47;;
43435;SDS011;36399;51.444;-2.018;2022-11-20T08:07:12;11.77;;;3.87;;
43435;SDS011;36399;51.444;-2.018;2022-11-20T08:09:38;12.33;;;3.10;;
43435;SDS011;36399;51.444;-2.018;2022-11-20T08:12:04;11.00;;;3.20;;
43435;SDS011;36399;51.444;-2.018;2022-11-20T08:14:49;22.70;;;3.70;;
43435;SDS011;36399;51.444;-2.018;2022-11-20T08:17:15;15.40;;;3.13;;
43435;SDS011;36399;51.444;-2.018;2022-11-20T08:19:41;19.97;;;5.57;;
43435;SDS011;36399;51.444;-2.018;2022-11-20T08:22:07;19.80;;;5.10;;
43435;SDS011;36399;51.444;-2.018;2022-11-20T08:24:33;11.13;;;3.50;;
43435;SDS011;36399;51.444;-2.018;2022-11-20T08:26:59;14.30;;;3.20;;
43435;SDS011;36399;51.444;-2.018;2022-11-20T08:29:28;21.07;;;5.13;;
43435;SDS011;36399;51.444;-2.018;2022-11-20T08:31:54;22.33;;;5.20;;
43435;SDS011;36399;51.444;-2.018;2022-11-20T08:34:20;13.27;;;3.57;;
43435;SDS011;36399;51.444;-2.018;2022-11-20T08:36:46;14.33;;;3.93;;
43435;SDS011;36399;51.444;-2.018;2022-11-20T08:39:12;20.60;;;4.10;;
43435;SDS011;36399;51.444;-2.018;2022-11-20T08:41:39;15.03;;;4.07;;
43435;SDS011;36399;51.444;-2.018;2022-11-20T08:44:06;15.47;;;3.73;;
43435;SDS011;36399;51.444;-2.018;2022-11-20T08:49:07;22.20;;;4.93;;
43435;SDS011;36399;51.444;-2.018;2022-11-20T08:51:35;23.40;;;6.10;;
43435;SDS011;36399;51.444;-2.018;2022-11-20T08:54:02;18.07;;;4.20;;
43435;SDS011;36399;51.444;-2.018;2022-11-20T08:56:28;24.50;;;4.40;;
43435;SDS011;36399;51.444;-2.018;2022-11-20T08:58:54;27.03;;;3.90;;
43435;SDS011;36399;51.444;-2.018;2022-11-20T09:01:21;25.43;;;5.80;;
43435;SDS011;36399;51.444;-2.018;2022-11-20T09:03:48;21.60;;;4.57;;
43435;SDS011;36399;51.444;-2.018;2022-11-20T09:06:15;19.23;;;4.50;;
43435;SDS011;36399;51.444;-2.018;2022-11-20T09:08:41;21.70;;;4.97;;
43435;SDS011;36399;51.444;-2.018;2022-11-20T09:11:07;13.20;;;2.97;;
43435;SDS011;36399;51.444;-2.018;2022-11-20T09:13:34;42.17;;;6.10;;
43435;SDS011;36399;51.444;-2.018;2022-11-20T09:16:02;20.47;;;5.30;;
43435;SDS011;36399;51.444;-2.018;2022-11-20T09:18:30;18.50;;;4.50;;
43435;SDS011;36399;51.444;-2.018;2022-11-20T09:20:58;26.87;;;5.27;;
43435;SDS011;36399;51.444;-2.018;2022-11-20T09:23:25;12.00;;;2.73;;
43435;SDS011;36399;51.444;-2.018;2022-11-20T09:25:52;10.87;;;2.73;;
43435;SDS011;36399;51.444;-2.018;2022-11-20T09:28:21;18.70;;;2.83;;
43435;SDS011;36399;51.444;-2.018;2022-11-20T09:30:47;8.43;;;2.83;;
43435;SDS011;36399;51.444;-2.018;2022-11-20T09:33:13;13.60;;;2.70;;
43435;SDS011;36399;51.444;-2.018;2022-11-20T09:35:38;14.53;;;3.30;;
43435;SDS011;36399;51.444;-2.018;2022-11-20T09:38:07;13.00;;;2.70;;
43435;SDS011;36399;51.444;-2.018;2022-11-20T09:40:34;15.30;;;2.40;;
43435;SDS011;36399;51.444;-2.018;2022-11-20T09:43:12;9.67;;;3.03;;
43435;SDS011;36399;51.444;-2.018;2022-11-20T09:45:48;13.18;;;2.83;;
43435;SDS011;36399;51.444;-2.018;2022-11-20T09:51:44;10.23;;;3.17;;
43435;SDS011;36399;51.444;-2.018;2022-11-20T09:56:53;8.57;;;3.03;;
43435;SDS011;36399;51.444;-2.018;2022-11-20T10:01:59;14.18;;;3.28;;
43435;SDS011;36399;51.444;-2.018;2022-11-20T10:04:27;7.85;;;2.10;;
43435;SDS011;36399;51.444;-2.018;2022-11-20T10:09:43;12.95;;;2.97;;
43435;SDS011;36399;51.444;-2.018;2022-11-20T10:15:33;7.43;;;2.27;;
43435;SDS011;36399;51.444;-2.018;2022-11-20T10:19:09;14.03;;;3.00;;
43435;SDS011;36399;51.444;-2.018;2022-11-20T10:32:33;10.10;;;3.13;;
43435;SDS011;36399;51.444;-2.018;2022-11-20T10:37:35;18.17;;;3.45;;
43435;SDS011;36399;51.444;-2.018;2022-11-20T10:45:28;13.97;;;2.50;;
43435;SDS011;36399;51.444;-2.018;2022-11-20T10:48:21;8.82;;;1.77;;
43435;SDS011;36399;51.444;-2.018;2022-11-20T10:50:59;11.60;;;2.83;;
43435;SDS011;36399;51.444;-2.018;2022-11-20T10:53:51;9.68;;;2.55;;
43435;SDS011;36399;51.444;-2.018;2022-11-20T11:02:15;7.57;;;1.98;;
43435;SDS011;36399;51.444;-2.018;2022-11-20T11:04:45;11.75;;;1.98;;
43435;SDS011;36399;51.444;-2.018;2022-11-20T11:07:19;13.25;;;2.63;;
43435;SDS011;36399;51.444;-2.018;2022-11-20T11:09:47;9.32;;;2.60;;
43435;SDS011;36399;51.444;-2.018;2022-11-20T11:12:18;9.63;;;2.75;;
43435;SDS011;36399;51.444;-2.018;2022-11-20T11:14:47;8.38;;;3.10;;
43435;SDS011;36399;51.444;-2.018;2022-11-20T11:17:20;9.35;;;2.10;;
43435;SDS011;36399;51.444;-2.018;2022-11-20T11:22:24;13.98;;;2.40;;
43435;SDS011;36399;51.444;-2.018;2022-11-20T11:24:53;9.15;;;2.08;;
43435;SDS011;36399;51.444;-2.018;2022-11-20T11:27:19;11.38;;;2.00;;
43435;SDS011;36399;51.444;-2.018;2022-11-20T11:29:45;6.82;;;2.15;;
43435;SDS011;36399;51.444;-2.018;2022-11-20T11:32:13;10.73;;;1.98;;
43435;SDS011;36399;51.444;-2.018;2022-11-20T11:34:40;10.90;;;1.83;;
43435;SDS011;36399;51.444;-2.018;2022-11-20T11:37:13;7.63;;;1.63;;
43435;SDS011;36399;51.444;-2.018;2022-11-20T11:39:44;10.00;;;2.08;;
43435;SDS011;36399;51.444;-2.018;2022-11-20T11:42:16;8.20;;;2.63;;
43435;SDS011;36399;51.444;-2.018;2022-11-20T11:44:45;10.57;;;2.20;;
43435;SDS011;36399;51.444;-2.018;2022-11-20T11:55:42;8.60;;;2.10;;
43435;SDS011;36399;51.444;-2.018;2022-11-20T12:04:05;9.50;;;2.40;;
43435;SDS011;36399;51.444;-2.018;2022-11-20T12:06:43;6.30;;;1.88;;
43435;SDS011;36399;51.444;-2.018;2022-11-20T12:09:11;13.07;;;2.77;;
43435;SDS011;36399;51.444;-2.018;2022-11-20T12:11:39;8.33;;;1.97;;
43435;SDS011;36399;51.444;-2.018;2022-11-20T12:17:00;9.27;;;2.10;;
43435;SDS011;36399;51.444;-2.018;2022-11-20T12:19:28;6.60;;;1.97;;
43435;SDS011;36399;51.444;-2.018;2022-11-20T12:25:04;11.63;;;2.73;;
43435;SDS011;36399;51.444;-2.018;2022-11-20T12:30:16;8.13;;;2.10;;
43435;SDS011;36399;51.444;-2.018;2022-11-20T12:38:25;10.20;;;1.93;;
43435;SDS011;36399;51.444;-2.018;2022-11-20T12:53:04;7.80;;;1.37;;
43435;SDS011;36399;51.444;-2.018;2022-11-20T12:58:21;9.30;;;1.70;;
43435;SDS011;36399;51.444;-2.018;2022-11-20T13:01:01;14.45;;;2.63;;
43435;SDS011;36399;51.444;-2.018;2022-11-20T13:08:45;8.07;;;2.27;;
43435;SDS011;36399;51.444;-2.018;2022-11-20T13:18:53;6.27;;;1.03;;
43435;SDS011;36399;51.444;-2.018;2022-11-20T13:21:34;8.83;;;1.40;;
43435;SDS011;36399;51.444;-2.018;2022-11-20T13:29:31;6.13;;;0.80;;
43435;SDS011;36399;51.444;-2.018;2022-11-20T13:32:04;8.13;;;1.33;;
43435;SDS011;36399;51.444;-2.018;2022-11-20T13:34:51;7.00;;;1.00;;
43435;SDS011;36399;51.444;-2.018;2022-11-20T13:37:27;5.27;;;0.67;;
43435;SDS011;36399;51.444;-2.018;2022-11-20T13:40:10;5.53;;;1.00;;
43435;SDS011;36399;51.444;-2.018;2022-11-20T13:42:45;5.03;;;0.97;;
43435;SDS011;36399;51.444;-2.018;2022-11-20T13:45:24;6.10;;;1.33;;
43435;SDS011;36399;51.444;-2.018;2022-11-20T13:47:52;3.80;;;0.90;;
43435;SDS011;36399;51.444;-2.018;2022-11-20T13:50:19;3.17;;;0.70;;
43435;SDS011;36399;51.444;-2.018;2022-11-20T13:52:59;6.50;;;1.27;;
43435;SDS011;36399;51.444;-2.018;2022-11-20T13:58:20;7.00;;;1.53;;
43435;SDS011;36399;51.444;-2.018;2022-11-20T14:00:56;4.50;;;0.90;;
43435;SDS011;36399;51.444;-2.018;2022-11-20T14:03:25;8.27;;;2.83;;
43435;SDS011;36399;51.444;-2.018;2022-11-20T14:05:56;8.17;;;2.40;;
43435;SDS011;36399;51.444;-2.018;2022-11-20T14:08:38;9.48;;;1.50;;
43435;SDS011;36399;51.444;-2.018;2022-11-20T14:13:51;4.90;;;0.93;;
43435;SDS011;36399;51.444;-2.018;2022-11-20T14:16:25;4.97;;;1.30;;
43435;SDS011;36399;51.444;-2.018;2022-11-20T14:18:54;4.17;;;1.10;;
43435;SDS011;36399;51.444;-2.018;2022-11-20T14:21:21;7.20;;;1.83;;
43435;SDS011;36399;51.444;-2.018;2022-11-20T14:23:52;2.67;;;1.20;;
43435;SDS011;36399;51.444;-2.018;2022-11-20T14:26:45;4.77;;;0.97;;
43435;SDS011;36399;51.444;-2.018;2022-11-20T14:29:14;4.53;;;0.85;;
43435;SDS011;36399;51.444;-2.018;2022-11-20T14:31:44;9.37;;;2.40;;
43435;SDS011;36399;51.444;-2.018;2022-11-20T14:34:16;4.87;;;1.00;;
43435;SDS011;36399;51.444;-2.018;2022-11-20T14:39:19;2.20;;;0.60;;
43435;SDS011;36399;51.444;-2.018;2022-11-20T14:41:50;3.60;;;0.90;;
43435;SDS011;36399;51.444;-2.018;2022-11-20T14:44:17;5.93;;;1.23;;
43435;SDS011;36399;51.444;-2.018;2022-11-20T14:46:45;2.67;;;1.03;;
43435;SDS011;36399;51.444;-2.018;2022-11-20T14:49:11;4.63;;;0.50;;
43435;SDS011;36399;51.444;-2.018;2022-11-20T14:51:38;2.80;;;0.60;;
43435;SDS011;36399;51.444;-2.018;2022-11-20T14:54:09;1.57;;;0.70;;
43435;SDS011;36399;51.444;-2.018;2022-11-20T14:56:38;3.27;;;0.60;;
43435;SDS011;36399;51.444;-2.018;2022-11-20T14:59:04;2.50;;;0.50;;
43435;SDS011;36399;51.444;-2.018;2022-11-20T15:01:31;3.83;;;0.70;;
43435;SDS011;36399;51.444;-2.018;2022-11-20T15:06:27;2.90;;;0.50;;
43435;SDS011;36399;51.444;-2.018;2022-11-20T15:08:53;0.20;;;0.10;;
43435;SDS011;36399;51.444;-2.018;2022-11-20T15:11:20;2.97;;;0.83;;
43435;SDS011;36399;51.444;-2.018;2022-11-20T15:13:51;3.77;;;0.50;;
43435;SDS011;36399;51.444;-2.018;2022-11-20T15:16:17;2.90;;;0.33;;
43435;SDS011;36399;51.444;-2.018;2022-11-20T15:18:45;1.37;;;0.27;;
43435;SDS011;36399;51.444;-2.018;2022-11-20T15:21:13;2.83;;;0.87;;
43435;SDS011;36399;51.444;-2.018;2022-11-20T15:23:41;1.23;;;0.60;;
43435;SDS011;36399;51.444;-2.018;2022-11-20T15:26:07;5.43;;;1.50;;
43435;SDS011;36399;51.444;-2.018;2022-11-20T15:28:44;2.77;;;0.80;;
43435;SDS011;36399;51.444;-2.018;2022-11-20T15:31:17;4.43;;;0.90;;
43435;SDS011;36399;51.444;-2.018;2022-11-20T15:33:45;3.67;;;1.43;;
43435;SDS011;36399;51.444;-2.018;2022-11-20T15:36:12;4.13;;;1.20;;
43435;SDS011;36399;51.444;-2.018;2022-11-20T15:38:38;3.30;;;1.00;;
43435;SDS011;36399;51.444;-2.018;2022-11-20T15:41:04;5.53;;;1.17;;
43435;SDS011;36399;51.444;-2.018;2022-11-20T15:43:30;4.27;;;0.93;;
43435;SDS011;36399;51.444;-2.018;2022-11-20T15:45:58;4.87;;;1.00;;
43435;SDS011;36399;51.444;-2.018;2022-11-20T15:48:28;4.60;;;1.00;;
43435;SDS011;36399;51.444;-2.018;2022-11-20T15:53:35;9.73;;;2.40;;
43435;SDS011;36399;51.444;-2.018;2022-11-20T15:56:02;7.37;;;1.90;;
43435;SDS011;36399;51.444;-2.018;2022-11-20T15:58:28;6.37;;;2.20;;
43435;SDS011;36399;51.444;-2.018;2022-11-20T16:00:54;7.03;;;2.03;;
43435;SDS011;36399;51.444;-2.018;2022-11-20T16:03:20;5.87;;;1.43;;
43435;SDS011;36399;51.444;-2.018;2022-11-20T16:05:46;4.57;;;1.40;;
43435;SDS011;36399;51.444;-2.018;2022-11-20T16:08:12;6.87;;;1.50;;
43435;SDS011;36399;51.444;-2.018;2022-11-20T16:10:39;4.07;;;1.27;;
43435;SDS011;36399;51.444;-2.018;2022-11-20T16:13:15;3.63;;;1.20;;
43435;SDS011;36399;51.444;-2.018;2022-11-20T16:16:04;4.70;;;1.00;;
43435;SDS011;36399;51.444;-2.018;2022-11-20T16:18:37;6.97;;;1.47;;
43435;SDS011;36399;51.444;-2.018;2022-11-20T16:21:03;6.97;;;1.47;;
43435;SDS011;36399;51.444;-2.018;2022-11-20T16:23:29;4.20;;;1.00;;
43435;SDS011;36399;51.444;-2.018;2022-11-20T16:25:55;6.03;;;1.13;;
43435;SDS011;36399;51.444;-2.018;2022-11-20T16:28:21;6.93;;;1.87;;
43435;SDS011;36399;51.444;-2.018;2022-11-20T16:30:47;2.03;;;0.73;;
43435;SDS011;36399;51.444;-2.018;2022-11-20T16:33:14;7.07;;;1.23;;
43435;SDS011;36399;51.444;-2.018;2022-11-20T16:35:42;5.23;;;1.70;;
43435;SDS011;36399;51.444;-2.018;2022-11-20T16:38:09;5.87;;;1.00;;
43435;SDS011;36399;51.444;-2.018;2022-11-20T16:40:35;2.40;;;0.67;;
43435;SDS011;36399;51.444;-2.018;2022-11-20T16:43:06;6.13;;;1.07;;
43435;SDS011;36399;51.444;-2.018;2022-11-20T16:45:43;8.80;;;1.67;;